createdAt,value
2022-11-04T00:01:41.804Z,99.90
2022-11-04T00:04:10.678Z,99.90
2022-11-04T00:06:38.954Z,99.90
2022-11-04T00:09:09.185Z,99.90
2022-11-04T00:11:55.420Z,99.90
2022-11-04T00:14:23.023Z,99.90
2022-11-04T00:17:08.988Z,99.90
2022-11-04T00:19:54.983Z,99.90
2022-11-04T00:22:41.095Z,99.90
2022-11-04T00:25:28.371Z,99.90
2022-11-04T00:28:38.318Z,99.90
2022-11-04T00:31:26.506Z,99.90
2022-11-04T00:33:55.635Z,99.90
2022-11-04T00:36:24.868Z,99.90
2022-11-04T00:38:52.647Z,99.90
2022-11-04T00:41:26.525Z,99.90
2022-11-04T00:44:00.233Z,99.90
2022-11-04T00:46:29.497Z,99.90
2022-11-04T00:48:57.349Z,99.90
2022-11-04T00:51:25.227Z,99.90
2022-11-04T00:53:52.960Z,99.90
2022-11-04T00:56:20.715Z,99.90
2022-11-04T00:58:49.971Z,99.90
2022-11-04T01:01:19.086Z,99.90
2022-11-04T01:03:48.228Z,99.90
2022-11-04T01:06:16.268Z,99.90
2022-11-04T01:08:44.069Z,99.90
2022-11-04T01:11:11.739Z,99.90
2022-11-04T01:13:40.062Z,99.90
2022-11-04T01:16:11.154Z,99.90
2022-11-04T01:18:39.735Z,99.90
2022-11-04T01:21:08.958Z,99.90
2022-11-04T01:23:36.695Z,99.90
2022-11-04T01:26:08.535Z,99.90
2022-11-04T01:28:36.607Z,99.90
2022-11-04T01:31:12.585Z,99.90
2022-11-04T01:33:40.392Z,99.90
2022-11-04T01:36:09.917Z,99.90
2022-11-04T01:38:37.886Z,99.90
2022-11-04T01:41:07.408Z,99.90
2022-11-04T01:43:52.346Z,99.90
2022-11-04T01:46:27.067Z,99.90
2022-11-04T01:48:59.640Z,99.90
2022-11-04T01:51:29.933Z,99.90
2022-11-04T01:53:57.787Z,99.90
2022-11-04T01:56:27.817Z,99.90
2022-11-04T01:59:00.206Z,99.90
2022-11-04T02:01:27.923Z,99.90
2022-11-04T02:04:19.090Z,99.90
2022-11-04T02:06:48.517Z,99.90
2022-11-04T02:09:18.593Z,99.90
2022-11-04T02:12:04.931Z,99.90
2022-11-04T02:14:34.300Z,99.90
2022-11-04T02:17:19.869Z,99.90
2022-11-04T02:20:05.384Z,99.90
2022-11-04T02:22:57.023Z,99.90
2022-11-04T02:25:55.531Z,99.90
2022-11-04T02:28:50.749Z,99.90
2022-11-04T02:31:52.376Z,99.90
2022-11-04T02:34:34.577Z,99.90
2022-11-04T02:37:11.857Z,99.90
2022-11-04T02:39:51.954Z,99.90
2022-11-04T02:42:38.300Z,99.90
2022-11-04T02:45:22.970Z,99.90
2022-11-04T02:47:58.343Z,99.90
2022-11-04T02:50:52.632Z,99.90
2022-11-04T02:53:57.945Z,99.90
2022-11-04T02:56:27.665Z,99.90
2022-11-04T02:59:06.213Z,99.90
2022-11-04T03:01:38.934Z,99.90
2022-11-04T03:04:12.493Z,99.90
2022-11-04T03:06:42.245Z,99.90
2022-11-04T03:09:13.356Z,99.90
2022-11-04T03:11:44.764Z,99.90
2022-11-04T03:14:27.658Z,99.90
2022-11-04T03:16:59.723Z,99.90
2022-11-04T03:19:45.969Z,99.90
2022-11-04T03:22:20.182Z,99.90
2022-11-04T03:24:49.225Z,99.90
2022-11-04T03:27:33.456Z,99.90
2022-11-04T03:38:02.355Z,99.90
2022-11-04T03:40:29.823Z,99.90
2022-11-04T03:43:01.095Z,99.90
2022-11-04T03:45:28.794Z,99.90
2022-11-04T03:47:58.090Z,99.90
2022-11-04T03:50:35.766Z,99.90
2022-11-04T03:53:03.237Z,99.90
2022-11-04T03:56:03.138Z,99.90
2022-11-04T03:58:50.837Z,99.90
2022-11-04T04:02:05.734Z,99.90
2022-11-04T04:04:49.385Z,99.90
2022-11-04T04:07:28.736Z,99.90
2022-11-04T04:10:32.778Z,99.90
2022-11-04T04:13:16.115Z,99.90
2022-11-04T04:16:10.557Z,99.90
2022-11-04T04:18:54.102Z,99.90
2022-11-04T04:21:30.372Z,99.90
2022-11-04T04:24:19.235Z,99.90
2022-11-04T04:27:06.984Z,99.90
2022-11-04T04:29:36.667Z,99.90
2022-11-04T04:32:05.345Z,99.90
2022-11-04T04:34:33.991Z,99.90
2022-11-04T04:37:19.781Z,99.90
2022-11-04T04:40:09.227Z,99.90
2022-11-04T04:42:56.203Z,99.90
2022-11-04T04:45:38.224Z,99.90
2022-11-04T04:48:08.133Z,99.90
2022-11-04T04:50:42.169Z,99.90
2022-11-04T04:53:09.945Z,99.90
2022-11-04T04:55:40.685Z,99.90
2022-11-04T04:58:09.863Z,99.90
2022-11-04T05:00:37.492Z,99.90
2022-11-04T05:03:04.944Z,99.90
2022-11-04T05:05:32.393Z,99.90
2022-11-04T05:08:07.717Z,99.90
2022-11-04T05:10:35.651Z,99.90
2022-11-04T05:13:22.004Z,99.90
2022-11-04T05:15:49.548Z,99.90
2022-11-04T05:18:16.998Z,99.90
2022-11-04T05:20:44.715Z,99.90
2022-11-04T05:23:13.559Z,99.90
2022-11-04T05:25:42.390Z,99.90
2022-11-04T05:28:10.396Z,99.90
2022-11-04T05:30:38.388Z,99.90
2022-11-04T05:33:06.555Z,99.90
2022-11-04T05:35:34.917Z,99.90
2022-11-04T05:38:02.671Z,99.90
2022-11-04T05:40:30.166Z,99.90
2022-11-04T05:42:59.798Z,99.90
2022-11-04T05:45:28.729Z,99.90
2022-11-04T05:48:04.504Z,99.90
2022-11-04T05:50:33.325Z,99.90
2022-11-04T05:53:01.458Z,99.90
2022-11-04T05:55:29.070Z,99.90
2022-11-04T05:57:58.077Z,99.90
2022-11-04T06:00:27.661Z,99.90
2022-11-04T06:02:59.069Z,99.90
2022-11-04T06:05:27.924Z,99.90
2022-11-04T06:07:56.410Z,99.90
2022-11-04T06:10:24.613Z,99.90
2022-11-04T06:12:52.107Z,99.90
2022-11-04T06:15:19.676Z,99.90
2022-11-04T06:17:47.149Z,99.90
2022-11-04T06:20:14.628Z,99.90
2022-11-04T06:22:42.080Z,99.90
2022-11-04T06:25:10.089Z,99.90
2022-11-04T06:27:37.704Z,99.90
2022-11-04T06:30:05.675Z,99.90
2022-11-04T06:32:33.590Z,99.90
2022-11-04T06:35:01.200Z,99.90
2022-11-04T06:37:28.817Z,99.90
2022-11-04T06:39:56.372Z,99.90
2022-11-04T06:42:25.896Z,99.90
2022-11-04T06:44:53.648Z,99.90
2022-11-04T06:47:24.808Z,99.90
2022-11-04T06:49:52.597Z,99.90
2022-11-04T06:52:20.073Z,99.90
2022-11-04T06:54:48.004Z,99.90
2022-11-04T06:57:15.723Z,99.90
2022-11-04T06:59:43.106Z,99.90
2022-11-04T07:02:11.305Z,99.90
2022-11-04T07:04:38.897Z,99.90
2022-11-04T07:07:06.445Z,99.90
2022-11-04T07:09:35.319Z,99.90
2022-11-04T07:12:04.202Z,99.90
2022-11-04T07:14:31.737Z,99.90
2022-11-04T07:16:59.159Z,99.90
2022-11-04T07:19:26.622Z,99.90
2022-11-04T07:21:54.110Z,99.90
2022-11-04T07:24:21.532Z,99.90
2022-11-04T07:26:49.275Z,99.90
2022-11-04T07:29:16.860Z,99.90
2022-11-04T07:31:44.308Z,99.90
2022-11-04T07:34:11.868Z,99.90
2022-11-04T07:36:39.240Z,99.90
2022-11-04T07:39:06.884Z,99.90
2022-11-04T07:41:34.272Z,99.90
2022-11-04T07:44:05.272Z,99.90
2022-11-04T07:46:33.036Z,99.90
2022-11-04T07:49:00.318Z,99.90
2022-11-04T07:51:28.325Z,99.90
2022-11-04T07:53:56.189Z,99.90
2022-11-04T07:56:24.208Z,99.90
2022-11-04T07:58:52.542Z,99.90
2022-11-04T08:01:23.471Z,99.90
2022-11-04T08:03:51.533Z,99.90
2022-11-04T08:06:20.775Z,99.90
2022-11-04T08:08:48.741Z,99.90
2022-11-04T08:11:19.279Z,99.90
2022-11-04T08:13:47.636Z,99.90
2022-11-04T08:16:17.724Z,99.90
2022-11-04T08:18:46.055Z,99.90
2022-11-04T08:21:14.418Z,99.90
2022-11-04T08:23:41.870Z,99.90
2022-11-04T08:26:16.410Z,99.90
2022-11-04T08:28:43.911Z,99.90
2022-11-04T08:31:15.701Z,99.90
2022-11-04T08:33:43.634Z,99.90
2022-11-04T08:36:21.288Z,99.90
2022-11-04T08:38:49.226Z,99.90
2022-11-04T08:41:19.828Z,99.90
2022-11-04T08:43:48.022Z,99.90
2022-11-04T08:46:16.628Z,99.90
2022-11-04T08:48:44.688Z,99.90
2022-11-04T08:51:24.502Z,99.90
2022-11-04T08:53:52.595Z,99.90
2022-11-04T08:56:31.406Z,99.90
2022-11-04T08:59:00.074Z,99.90
2022-11-04T09:01:34.236Z,99.90
2022-11-04T09:04:04.162Z,99.90
2022-11-04T09:06:36.379Z,99.90
2022-11-04T09:09:05.549Z,99.90
2022-11-04T09:11:34.955Z,99.90
2022-11-04T09:14:03.347Z,99.90
2022-11-04T09:16:32.580Z,99.90
2022-11-04T09:19:00.916Z,99.90
2022-11-04T09:21:28.954Z,99.90
2022-11-04T09:23:56.941Z,99.90
2022-11-04T09:26:25.664Z,99.90
2022-11-04T09:28:58.005Z,99.90
2022-11-04T09:31:28.688Z,99.90
2022-11-04T09:33:56.696Z,99.90
2022-11-04T09:36:24.489Z,99.90
2022-11-04T09:38:52.246Z,99.90
2022-11-04T09:41:47.170Z,99.90
2022-11-04T09:45:00.046Z,99.90
2022-11-04T09:47:31.922Z,99.90
2022-11-04T09:50:01.433Z,99.90
2022-11-04T09:52:32.813Z,99.90
2022-11-04T09:55:29.444Z,99.90
2022-11-04T09:57:58.606Z,99.90
2022-11-04T10:00:27.713Z,99.90
2022-11-04T10:02:58.237Z,99.90
2022-11-04T10:05:31.833Z,99.90
2022-11-04T10:08:21.265Z,99.90
2022-11-04T10:11:01.007Z,99.90
2022-11-04T10:13:28.569Z,99.90
2022-11-04T10:16:05.089Z,99.90
2022-11-04T10:18:51.518Z,99.90
2022-11-04T10:21:51.391Z,99.90
2022-11-04T10:24:21.163Z,99.90
2022-11-04T10:27:09.820Z,99.90
2022-11-04T10:29:52.029Z,99.90
2022-11-04T10:32:28.144Z,99.90
2022-11-04T10:35:00.429Z,99.90
2022-11-04T10:37:28.841Z,99.90
2022-11-04T10:40:23.209Z,99.90
2022-11-04T10:42:51.689Z,99.90
2022-11-04T10:45:26.329Z,99.90
2022-11-04T10:48:12.463Z,99.90
2022-11-04T10:50:53.381Z,99.90
2022-11-04T10:53:25.086Z,99.90
2022-11-04T10:56:07.882Z,99.90
2022-11-04T10:58:41.353Z,99.90
2022-11-04T11:01:31.000Z,99.90
2022-11-04T11:04:00.373Z,99.90
2022-11-04T11:06:30.517Z,99.90
2022-11-04T11:09:01.502Z,99.90
2022-11-04T11:11:35.811Z,99.90
2022-11-04T11:14:03.300Z,99.90
2022-11-04T11:16:31.915Z,99.90
2022-11-04T11:19:15.567Z,99.90
2022-11-04T11:21:45.773Z,99.60
2022-11-04T11:24:24.111Z,99.50
2022-11-04T11:27:03.877Z,99.20
2022-11-04T11:29:40.499Z,98.80
2022-11-04T11:32:35.832Z,98.60
2022-11-04T11:35:07.846Z,98.10
2022-11-04T11:37:40.652Z,98.40
2022-11-04T11:40:32.103Z,98.00
2022-11-04T11:43:01.695Z,97.30
2022-11-04T11:45:30.637Z,97.10
2022-11-04T11:47:58.220Z,96.30
2022-11-04T11:50:35.647Z,95.50
2022-11-04T11:53:23.801Z,94.90
2022-11-04T11:56:02.671Z,94.10
2022-11-04T12:01:28.769Z,93.30
2022-11-04T12:10:24.139Z,92.60
2022-11-04T12:13:24.367Z,92.00
2022-11-04T12:16:09.005Z,92.00
2022-11-04T12:19:04.536Z,90.90
2022-11-04T12:21:35.168Z,90.20
2022-11-04T12:24:19.310Z,89.90
2022-11-04T12:27:01.922Z,89.50
2022-11-04T12:30:07.257Z,88.60
2022-11-04T12:32:48.442Z,87.80
2022-11-04T12:35:41.007Z,85.50
2022-11-04T12:38:17.665Z,83.70
2022-11-04T12:41:18.729Z,83.30
2022-11-04T12:44:00.214Z,82.50
2022-11-04T12:46:58.304Z,82.00
2022-11-04T12:49:54.484Z,81.10
2022-11-04T12:52:28.061Z,79.60
2022-11-04T12:55:33.083Z,80.10
2022-11-04T12:58:25.309Z,78.30
2022-11-04T13:01:25.853Z,77.30
2022-11-04T13:04:09.508Z,76.20
2022-11-04T13:06:48.863Z,75.30
2022-11-04T13:09:47.030Z,74.60
2022-11-04T13:12:19.803Z,73.60
2022-11-04T13:14:52.666Z,72.90
2022-11-04T13:17:27.584Z,70.80
2022-11-04T13:20:14.094Z,68.70
2022-11-04T13:22:45.838Z,68.40
2022-11-04T13:25:29.480Z,68.50
2022-11-04T13:27:58.402Z,67.30
2022-11-04T13:30:45.928Z,68.10
2022-11-04T13:33:16.877Z,66.20
2022-11-04T13:36:12.895Z,64.60
2022-11-04T13:39:08.970Z,63.60
2022-11-04T13:42:20.615Z,61.60
2022-11-04T13:44:52.666Z,62.20
2022-11-04T13:47:29.410Z,63.50
2022-11-04T13:49:57.017Z,62.60
2022-11-04T13:52:28.749Z,62.30
2022-11-04T13:55:04.461Z,60.10
2022-11-04T13:57:54.457Z,58.70
2022-11-04T14:00:23.855Z,59.30
2022-11-04T14:02:55.980Z,59.80
2022-11-04T14:05:34.533Z,58.70
2022-11-04T14:08:02.182Z,58.50
2022-11-04T14:10:51.002Z,59.60
2022-11-04T14:13:27.820Z,58.00
2022-11-04T14:16:11.987Z,57.30
2022-11-04T14:18:47.923Z,57.70
2022-11-04T14:21:23.040Z,58.10
2022-11-04T14:23:57.193Z,58.20
2022-11-04T14:26:28.554Z,57.10
2022-11-04T14:29:08.019Z,57.20
2022-11-04T14:31:36.652Z,56.50
2022-11-04T14:34:05.865Z,57.10
2022-11-04T14:36:41.334Z,57.00
2022-11-04T14:39:12.068Z,55.70
2022-11-04T14:41:53.092Z,56.40
2022-11-04T14:44:31.910Z,56.90
2022-11-04T14:47:22.522Z,57.30
2022-11-04T14:49:59.921Z,57.20
2022-11-04T14:52:35.059Z,56.60
2022-11-04T14:55:05.301Z,56.70
2022-11-04T14:57:39.257Z,56.80
2022-11-04T15:00:35.867Z,56.90
2022-11-04T15:06:53.442Z,56.80
2022-11-04T15:09:22.501Z,57.20
2022-11-04T15:12:08.458Z,57.80
2022-11-04T15:14:37.503Z,58.00
2022-11-04T15:17:04.985Z,58.00
2022-11-04T15:19:37.313Z,57.80
2022-11-04T15:22:06.512Z,57.80
2022-11-04T15:24:35.324Z,58.40
2022-11-04T15:27:06.429Z,58.60
2022-11-04T15:29:34.134Z,59.10
2022-11-04T15:32:05.117Z,59.80
2022-11-04T15:34:35.534Z,60.20
2022-11-04T15:37:05.635Z,60.60
2022-11-04T15:39:46.118Z,61.20
2022-11-04T15:42:43.704Z,62.00
2022-11-04T15:45:29.404Z,62.80
2022-11-04T15:48:22.998Z,64.30
2022-11-04T15:51:14.559Z,65.50
2022-11-04T15:53:59.847Z,66.60
2022-11-04T15:56:40.315Z,68.00
2022-11-04T15:59:16.891Z,67.60
2022-11-04T16:01:50.371Z,68.70
2022-11-04T16:04:22.016Z,69.60
2022-11-04T16:07:08.867Z,70.40
2022-11-04T16:09:47.159Z,71.40
2022-11-04T16:12:16.595Z,72.00
2022-11-04T16:14:53.060Z,72.30
2022-11-04T16:17:21.582Z,73.00
2022-11-04T16:19:53.809Z,73.40
2022-11-04T16:22:38.923Z,74.40
2022-11-04T16:25:11.010Z,75.30
2022-11-04T16:27:38.612Z,75.60
2022-11-04T16:30:21.116Z,76.00
2022-11-04T16:32:54.018Z,77.00
2022-11-04T16:35:26.896Z,77.30
2022-11-04T16:37:56.225Z,78.00
2022-11-04T16:40:25.012Z,78.40
2022-11-04T16:44:05.413Z,78.60
2022-11-04T16:46:34.230Z,80.00
2022-11-04T16:49:01.818Z,80.90
2022-11-04T16:51:32.831Z,81.40
2022-11-04T16:54:00.184Z,82.00
2022-11-04T16:56:27.759Z,81.60
2022-11-04T16:58:55.325Z,82.70
2022-11-04T17:01:22.936Z,83.40
2022-11-04T17:03:50.468Z,83.90
2022-11-04T17:06:18.028Z,84.20
2022-11-04T17:08:45.473Z,85.20
2022-11-04T17:11:13.326Z,85.70
2022-11-04T17:13:40.881Z,86.10
2022-11-04T17:16:12.987Z,86.40
2022-11-04T17:18:40.833Z,86.90
2022-11-04T17:21:13.096Z,87.40
2022-11-04T17:23:41.621Z,87.80
2022-11-04T17:26:11.903Z,88.10
2022-11-04T17:28:39.643Z,88.50
2022-11-04T17:31:07.961Z,88.90
2022-11-04T17:33:35.564Z,89.30
2022-11-04T17:36:07.517Z,89.80
2022-11-04T17:38:35.645Z,90.00
2022-11-04T17:41:22.306Z,90.20
2022-11-04T17:44:02.355Z,90.70
2022-11-04T17:46:35.800Z,90.40
2022-11-04T17:49:11.886Z,90.60
2022-11-04T17:51:41.533Z,90.70
2022-11-04T17:54:10.097Z,90.80
2022-11-04T17:56:39.189Z,90.90
2022-11-04T17:59:08.242Z,91.10
2022-11-04T18:01:36.912Z,91.20
2022-11-04T18:04:04.540Z,91.30
2022-11-04T18:06:34.278Z,91.40
2022-11-04T18:09:03.792Z,91.50
2022-11-04T18:11:53.580Z,91.60
2022-11-04T18:14:22.066Z,91.70
2022-11-04T18:16:50.495Z,91.70
2022-11-04T18:19:20.314Z,91.90
2022-11-04T18:21:49.377Z,92.00
2022-11-04T18:24:19.265Z,92.00
2022-11-04T18:26:47.433Z,92.20
2022-11-04T18:29:21.084Z,92.30
2022-11-04T18:31:49.957Z,92.40
2022-11-04T18:34:23.933Z,92.50
2022-11-04T18:36:52.222Z,92.60
2022-11-04T18:39:20.365Z,92.90
2022-11-04T18:41:48.820Z,93.00
2022-11-04T18:44:19.500Z,93.10
2022-11-04T18:46:47.874Z,93.20
2022-11-04T18:49:20.717Z,93.00
2022-11-04T18:51:48.769Z,93.20
2022-11-04T18:54:16.765Z,93.40
2022-11-04T18:56:44.782Z,93.60
2022-11-04T18:59:14.733Z,93.70
2022-11-04T19:01:43.850Z,94.20
2022-11-04T19:04:13.241Z,94.40
2022-11-04T19:06:43.070Z,94.40
2022-11-04T19:12:25.499Z,94.50
2022-11-04T19:14:53.725Z,94.90
2022-11-04T19:17:22.646Z,94.50
2022-11-04T19:19:51.632Z,94.80
2022-11-04T19:22:19.315Z,94.90
2022-11-04T19:24:47.207Z,95.00
2022-11-04T19:27:18.131Z,95.10
2022-11-04T19:29:49.067Z,95.20
2022-11-04T19:32:34.919Z,95.20
2022-11-04T19:35:03.246Z,95.40
2022-11-04T19:37:39.733Z,95.60
2022-11-04T19:40:11.527Z,95.70
2022-11-04T19:42:57.773Z,95.70
2022-11-04T19:45:28.489Z,95.70
2022-11-04T19:47:59.153Z,95.70
2022-11-04T19:50:26.997Z,95.80
2022-11-04T19:52:54.744Z,95.80
2022-11-04T19:55:22.901Z,96.00
2022-11-04T19:57:50.569Z,96.10
2022-11-04T20:00:18.370Z,96.10
2022-11-04T20:02:45.938Z,96.10
2022-11-04T20:05:13.364Z,96.20
2022-11-04T20:07:40.799Z,96.30
2022-11-04T20:10:09.380Z,96.40
2022-11-04T20:12:56.333Z,96.50
2022-11-04T20:15:25.944Z,96.60
2022-11-04T20:17:53.351Z,96.60
2022-11-04T20:20:20.910Z,96.70
2022-11-04T20:22:48.638Z,96.70
2022-11-04T20:25:16.536Z,96.70
2022-11-04T20:27:44.197Z,96.80
2022-11-04T20:30:12.030Z,96.80
2022-11-04T20:32:39.495Z,96.90
2022-11-04T20:35:07.721Z,96.90
2022-11-04T20:37:35.620Z,97.00
2022-11-04T20:40:04.117Z,97.00
2022-11-04T20:42:31.791Z,97.00
2022-11-04T20:44:59.286Z,97.10
2022-11-04T20:47:26.845Z,97.20
2022-11-04T20:49:54.347Z,97.20
2022-11-04T20:52:22.210Z,97.30
2022-11-04T20:54:49.695Z,97.30
2022-11-04T20:57:18.218Z,97.40
2022-11-04T20:59:46.898Z,97.50
2022-11-04T21:02:14.640Z,97.50
2022-11-04T21:04:42.368Z,98.00
2022-11-04T21:07:09.973Z,97.70
2022-11-04T21:09:37.527Z,97.70
2022-11-04T21:12:06.659Z,97.80
2022-11-04T21:14:35.163Z,97.80
2022-11-04T21:17:04.354Z,97.80
2022-11-04T21:19:32.316Z,97.90
2022-11-04T21:21:59.857Z,98.00
2022-11-04T21:24:27.375Z,98.00
2022-11-04T21:26:56.554Z,98.10
2022-11-04T21:29:24.287Z,98.10
2022-11-04T21:31:52.378Z,98.20
2022-11-04T21:34:20.276Z,98.10
2022-11-04T21:36:51.634Z,98.10
2022-11-04T21:39:19.444Z,98.20
2022-11-04T21:41:46.950Z,98.20
2022-11-04T21:44:14.463Z,98.20
2022-11-04T21:46:42.469Z,98.20
2022-11-04T21:49:12.464Z,98.30
2022-11-04T21:51:40.276Z,98.40
2022-11-04T21:54:08.539Z,98.40
2022-11-04T21:56:36.064Z,98.40
2022-11-04T21:59:04.336Z,98.40
2022-11-04T22:01:32.565Z,98.50
2022-11-04T22:04:02.077Z,98.50
2022-11-04T22:06:34.826Z,98.60
2022-11-04T22:09:12.038Z,98.70
2022-11-04T22:11:42.880Z,98.80
2022-11-04T22:14:12.414Z,98.80
2022-11-04T22:16:40.497Z,98.80
2022-11-04T22:19:10.554Z,99.00
2022-11-04T22:21:43.822Z,99.20
2022-11-04T22:24:19.811Z,99.10
2022-11-04T22:26:48.074Z,99.00
2022-11-04T22:29:16.081Z,99.00
2022-11-04T22:31:44.788Z,99.00
2022-11-04T22:34:12.485Z,99.00
2022-11-04T22:36:40.396Z,98.90
2022-11-04T22:39:16.358Z,98.90
2022-11-04T22:41:46.335Z,98.90
2022-11-04T22:44:14.889Z,98.90
2022-11-04T22:46:42.535Z,98.90
2022-11-04T22:49:10.116Z,99.00
2022-11-04T22:51:38.647Z,99.10
2022-11-04T22:54:09.613Z,99.30
2022-11-04T22:56:37.119Z,99.00
2022-11-04T22:59:05.196Z,99.20
2022-11-04T23:01:34.056Z,99.20
2022-11-04T23:04:01.947Z,99.20
2022-11-04T23:06:29.477Z,99.20
2022-11-04T23:09:00.412Z,99.30
2022-11-04T23:11:49.001Z,99.30
2022-11-04T23:14:37.702Z,99.30
2022-11-04T23:17:38.252Z,99.40
2022-11-04T23:20:12.152Z,99.40
2022-11-04T23:22:58.682Z,99.40
2022-11-04T23:25:26.995Z,99.40
2022-11-04T23:28:14.313Z,99.70
2022-11-04T23:30:46.958Z,99.40
2022-11-04T23:33:15.347Z,99.40
2022-11-04T23:36:07.074Z,99.40
2022-11-04T23:38:37.271Z,99.50
2022-11-04T23:41:27.254Z,99.50
2022-11-04T23:43:54.742Z,99.50
2022-11-04T23:47:00.837Z,99.40
2022-11-04T23:49:47.226Z,99.50
2022-11-04T23:52:33.284Z,99.50
2022-11-04T23:55:19.613Z,99.40
2022-11-04T23:58:10.370Z,99.50
